РУС

ENG

 
  Pireps - S7
 

Рейс SBI1019

  • Выполнял: Dmitry Schcurov
  • Аэропорт отправления: Domodedovo Airport (UUDD)
  • Аэропорт назначения: Pulkovo Airport (ULLI)
  • Тип ВС: A319-112 (VP-BHJ)
  • Время полёта: 01.36
  • Дата полёта: 01.07.2020
  • Маршрут: WT GEKLA RUGEL BESTA KN NE R804 BD B160 OKULO R961 GENPA DIKOM
  • Статус: Одобрен

Детали полёта
Gross Revenue:
(103 load / $ 0.00 per unit
$ 0.00
Fuel Cost:
(3427 fuel used @ 5.1 / unit)
$ 17, 477.70


Дополнительная информация о полёте:

Лог

Aircraft Used in flight is Feelthere A319 CFM Airbus House
22:03 Boarding
22:03 Navigation Lights ON at 600 AGL
22:03 Brakes are On
22:09 Beacon Lights ON at 600 AGL
22:13 Engine 1 Started
22:14 Engine 2 Started
22:14Flaps 2 Selected at 600ft and 0kts
22:15 Taxi Lights ON at 600 AGL
22:16 Brakes are Released
22:22 Landing Lights ON at 600 AGL
22:22 Strobe Lights ON at 600 AGL
22:22 Taxi Lights OFF at 600 AGL
22:22 Spoilers Armed
22:23 You Took off @ 145 Knots and Flaps at Position 2
Departure Weather
UUDD 011900Z 21002MPS CAVOK 19/12 Q1009 R32L/CLRD60 NOSIG
22:23 Landing Gear Up @ 152 Knots and 690 Feet
22:23 Spoilers Disarmed
22:25Flaps 1 Selected at 3420ft and 191kts
22:25Flaps Retracted at 3420ft and 191kts
22:26 Landing Lights OFF at 5710 AGL
22:45 TOC Reached
23:04 Paused
23:04 Unpaused
23:17 Landing Lights ON at 9060 AGL
23:24Flaps 1 Selected at 2470ft and 208kts
23:25Flaps 3 Selected at 2120ft and 188kts
23:27 Spoilers Armed
23:27 Landing Gear Down @ 139 Knots and 1970 Feet
23:27 Taxi Lights ON at 1980 AGL
23:27 Taxi Lights OFF at 1980 AGL
23:27Flaps 4 Selected at 2010ft and 142kts
23:29Flaps 5 Selected at 1990ft and 142kts
23:32 You Landed @ 125 Knots and with -300 Vertical Speed
Arrival Weather
ULLI 011830Z 23005MPS 9999 SCT030CB BKN040 16/12 Q0999 R28R/090060 NOSIG
23:32 Spoilers Disarmed
23:33 Landing Lights OFF at 90 AGL
23:33 Taxi Lights ON at 90 AGL
23:33Flaps Retracted at 90ft and 12kts
23:33 Strobe Lights OFF at 90 AGL
23:37 Brakes are On
23:38 Engine 1 Stoped
23:38 Engine 2 Stoped
23:38 Taxi Lights OFF at 90 AGL
23:38 Beacon Lights OFF at 90 AGL
Pirep logged with S7 Tracking 1.0.0.14



Общая оценка полета : 100%




Route Map



 
 
   
 
Новости

03.09.2020 - Полеты в MFS 2020

Спешим сообщить вам, что теперь наш S7 Pad поддерживается для полетов в новом симуляторе MFS 2020. В разделе Загрузки вы найдете FSUIPC7.rar
Инструкция для запуска прилагается!

   
 
Авторизация






Регистрация

Восстановить пароль?

Мы в соц. сетях

      



   
 





   
 


   
 


Яндекс.Метрика

www.va-s7.ru 2011-2020
Все права защищены.



Минуточку внимания!
Сайт va-s7.ru не является коммерческим проектом. Мы не имеем отношения к торговым маркам "S7" и "Globus" и их представителям.
Эмблемы на сайте являются собственностью соответствующих компаний.

аэронавигационная метеорологическая и любая другая информация с данного ресурса ни в коем случае не должна использоваться для реальных полетов